createdAt,value
2017-10-26T00:02:09.418Z,4.90
2017-10-26T00:04:37.257Z,6.33
2017-10-26T00:07:05.124Z,4.80
2017-10-26T00:09:32.951Z,4.83
2017-10-26T00:12:00.802Z,5.07
2017-10-26T00:14:28.676Z,6.10
2017-10-26T00:16:56.510Z,4.67
2017-10-26T00:19:24.341Z,4.40
2017-10-26T00:21:52.183Z,6.70
2017-10-26T00:24:20.018Z,6.57
2017-10-26T00:26:47.841Z,4.70
2017-10-26T00:29:15.658Z,7.07
2017-10-26T00:31:43.501Z,6.60
2017-10-26T00:34:17.416Z,7.50
2017-10-26T00:36:45.269Z,5.53
2017-10-26T00:39:13.110Z,6.67
2017-10-26T00:41:40.945Z,7.00
2017-10-26T00:44:08.756Z,5.60
2017-10-26T00:46:36.574Z,10.87
2017-10-26T00:49:04.416Z,6.93
2017-10-26T00:51:32.277Z,6.83
2017-10-26T00:54:06.297Z,7.50
2017-10-26T00:56:34.186Z,7.50
2017-10-26T00:59:02.020Z,8.53
2017-10-26T01:01:29.854Z,8.73
2017-10-26T01:03:57.688Z,9.07
2017-10-26T01:06:25.935Z,9.33
2017-10-26T01:08:54.066Z,9.10
2017-10-26T01:11:35.290Z,10.67
2017-10-26T01:17:07.920Z,8.93
2017-10-26T01:19:35.764Z,9.23
2017-10-26T01:22:03.702Z,8.97
2017-10-26T01:24:31.557Z,9.40
2017-10-26T01:26:59.386Z,9.50
2017-10-26T01:29:27.239Z,9.17
2017-10-26T01:31:55.065Z,11.30
2017-10-26T01:34:22.917Z,8.77
2017-10-26T01:36:50.741Z,10.30
2017-10-26T01:39:18.596Z,9.13
2017-10-26T01:41:46.429Z,9.20
2017-10-26T01:47:15.783Z,10.60
2017-10-26T01:49:43.685Z,11.63
2017-10-26T01:52:11.634Z,12.40
2017-10-26T01:54:39.701Z,9.47
2017-10-26T01:57:07.754Z,11.50
2017-10-26T01:59:35.619Z,12.30
2017-10-26T02:02:04.280Z,12.50
2017-10-26T02:04:40.417Z,11.50
2017-10-26T02:07:08.418Z,12.10
2017-10-26T02:09:37.489Z,8.47
2017-10-26T02:12:05.739Z,12.10
2017-10-26T02:14:34.079Z,12.57
2017-10-26T02:17:02.046Z,12.80
2017-10-26T02:19:29.973Z,12.57
2017-10-26T02:21:57.854Z,12.57
2017-10-26T02:24:31.748Z,11.00
2017-10-26T02:26:59.665Z,13.57
2017-10-26T02:29:33.556Z,13.33
2017-10-26T02:32:01.486Z,10.10
2017-10-26T02:34:35.798Z,12.27
2017-10-26T02:37:03.634Z,12.57
2017-10-26T02:39:31.487Z,12.87
2017-10-26T02:41:59.352Z,13.00
2017-10-26T02:44:27.181Z,13.63
2017-10-26T02:46:55.003Z,13.47
2017-10-26T02:49:22.812Z,12.30
2017-10-26T02:51:50.650Z,13.03
2017-10-26T02:54:25.128Z,11.63
2017-10-26T02:56:53.307Z,13.60
2017-10-26T02:59:21.301Z,10.40
2017-10-26T03:01:49.373Z,13.30
2017-10-26T03:04:23.265Z,10.90
2017-10-26T03:06:51.134Z,12.40
2017-10-26T03:09:18.963Z,14.70
2017-10-26T03:11:46.805Z,14.80
2017-10-26T03:17:12.526Z,14.17
2017-10-26T03:19:40.475Z,14.60
2017-10-26T03:22:08.365Z,15.00
2017-10-26T03:24:36.195Z,13.10
2017-10-26T03:27:04.035Z,12.57
2017-10-26T03:29:31.842Z,12.37
2017-10-26T03:31:59.659Z,14.70
2017-10-26T03:34:30.942Z,15.10
2017-10-26T03:36:59.049Z,14.03
2017-10-26T03:39:27.352Z,14.50
2017-10-26T03:41:55.565Z,14.30
2017-10-26T03:44:38.670Z,14.43
2017-10-26T03:47:06.497Z,14.50
2017-10-26T03:49:34.337Z,14.63
2017-10-26T03:52:02.741Z,15.50
2017-10-26T03:54:30.563Z,14.63
2017-10-26T03:56:58.392Z,12.67
2017-10-26T03:59:26.210Z,15.43
2017-10-26T04:01:54.041Z,10.90
2017-10-26T04:04:21.874Z,14.40
2017-10-26T04:06:49.704Z,14.83
2017-10-26T04:09:17.537Z,15.10
2017-10-26T04:11:45.354Z,14.80
2017-10-26T04:14:19.431Z,12.77
2017-10-26T04:16:47.257Z,14.63
2017-10-26T04:19:15.084Z,15.40
2017-10-26T04:21:42.940Z,14.00
2017-10-26T04:24:10.797Z,14.13
2017-10-26T04:26:38.620Z,13.53
2017-10-26T04:29:06.467Z,13.97
2017-10-26T04:31:34.291Z,15.93
2017-10-26T04:34:02.137Z,15.60
2017-10-26T04:36:29.978Z,14.03
2017-10-26T04:38:57.841Z,13.67
2017-10-26T04:41:25.661Z,15.30
2017-10-26T04:46:54.702Z,13.70
2017-10-26T04:49:22.530Z,15.27
2017-10-26T04:51:50.343Z,15.20
2017-10-26T04:54:18.177Z,15.10
2017-10-26T04:59:40.483Z,16.17
2017-10-26T05:02:08.441Z,11.63
2017-10-26T05:04:36.342Z,9.50
2017-10-26T05:07:04.730Z,14.50
2017-10-26T05:09:32.724Z,15.63
2017-10-26T05:12:04.869Z,14.73
2017-10-26T05:14:32.737Z,15.43
2017-10-26T05:17:00.565Z,13.53
2017-10-26T05:19:28.390Z,13.77
2017-10-26T05:21:56.229Z,12.47
2017-10-26T05:24:24.069Z,14.40
2017-10-26T05:26:51.901Z,12.30
2017-10-26T05:29:25.023Z,14.30
2017-10-26T05:31:53.962Z,13.70
2017-10-26T05:34:21.953Z,16.50
2017-10-26T05:36:49.770Z,14.33
2017-10-26T05:39:17.597Z,12.33
2017-10-26T05:41:45.464Z,14.40
2017-10-26T05:44:22.779Z,9.70
2017-10-26T05:46:50.667Z,13.80
2017-10-26T05:49:19.186Z,14.80
2017-10-26T05:51:47.234Z,13.97
2017-10-26T05:54:15.084Z,14.60
2017-10-26T05:56:42.956Z,15.07
2017-10-26T05:59:10.825Z,14.17
2017-10-26T06:01:38.649Z,17.00
2017-10-26T06:04:06.493Z,16.33
2017-10-26T06:06:34.348Z,15.40
2017-10-26T06:09:04.272Z,15.47
2017-10-26T06:11:32.131Z,16.17
2017-10-26T06:14:00.881Z,14.50
2017-10-26T06:16:28.711Z,16.43
2017-10-26T06:18:56.553Z,16.73
2017-10-26T06:21:24.381Z,11.63
2017-10-26T06:23:52.226Z,16.40
2017-10-26T06:26:20.048Z,17.30
2017-10-26T06:28:47.873Z,19.27
2017-10-26T06:31:15.677Z,18.87
2017-10-26T06:33:43.508Z,17.80
2017-10-26T06:36:11.324Z,18.07
2017-10-26T06:38:39.154Z,19.30
2017-10-26T06:41:07.004Z,19.47
2017-10-26T06:46:33.788Z,18.43
2017-10-26T06:49:01.641Z,19.80
2017-10-26T06:51:29.477Z,19.00
2017-10-26T06:54:04.027Z,18.57
2017-10-26T06:56:31.855Z,20.70
2017-10-26T06:58:59.663Z,20.47
2017-10-26T07:01:27.456Z,21.13
2017-10-26T07:03:55.257Z,22.80
2017-10-26T07:06:23.060Z,22.57
2017-10-26T07:08:50.921Z,23.00
2017-10-26T07:11:18.726Z,17.20
2017-10-26T07:13:46.559Z,23.53
2017-10-26T07:16:14.384Z,22.97
2017-10-26T07:18:42.205Z,21.20
2017-10-26T07:21:10.053Z,21.37
2017-10-26T07:23:37.881Z,23.00
2017-10-26T07:26:05.676Z,20.80
2017-10-26T07:28:33.476Z,22.63
2017-10-26T07:31:01.278Z,20.20
2017-10-26T07:33:29.089Z,24.87
2017-10-26T07:35:56.881Z,24.47
2017-10-26T07:38:24.713Z,21.40
2017-10-26T07:40:52.518Z,17.10
2017-10-26T07:43:20.325Z,23.97
2017-10-26T07:45:48.129Z,24.97
2017-10-26T07:48:15.941Z,21.47
2017-10-26T07:50:43.756Z,25.87
2017-10-26T07:53:11.566Z,25.53
2017-10-26T07:55:39.377Z,26.30
2017-10-26T07:58:07.172Z,25.37
2017-10-26T08:00:34.977Z,28.80
2017-10-26T08:03:02.774Z,27.53
2017-10-26T08:05:30.610Z,28.40
2017-10-26T08:07:58.428Z,25.57
2017-10-26T08:10:26.235Z,30.90
2017-10-26T08:12:54.057Z,29.50
2017-10-26T08:15:21.860Z,29.80
2017-10-26T08:17:49.677Z,33.93
2017-10-26T08:20:17.480Z,28.63
2017-10-26T08:22:45.281Z,36.07
2017-10-26T08:25:13.093Z,34.90
2017-10-26T08:27:40.909Z,34.90
2017-10-26T08:30:08.726Z,35.30
2017-10-26T08:32:36.520Z,32.80
2017-10-26T08:35:04.329Z,38.37
2017-10-26T08:37:32.169Z,39.23
2017-10-26T08:40:00.001Z,40.10
2017-10-26T08:42:27.812Z,33.33
2017-10-26T08:44:55.629Z,38.90
2017-10-26T08:47:23.457Z,37.20
2017-10-26T08:49:51.274Z,32.33
2017-10-26T08:52:19.092Z,40.83
2017-10-26T08:54:46.900Z,41.33
2017-10-26T08:57:14.737Z,40.83
2017-10-26T08:59:42.550Z,35.40
2017-10-26T09:02:10.389Z,41.13
2017-10-26T09:04:38.204Z,41.80
2017-10-26T09:07:06.027Z,39.53
2017-10-26T09:09:33.849Z,29.57
2017-10-26T09:12:01.660Z,39.40
2017-10-26T09:14:29.472Z,39.93
2017-10-26T09:16:57.301Z,39.80
2017-10-26T09:19:25.133Z,41.97
2017-10-26T09:21:52.950Z,38.80
2017-10-26T09:24:20.762Z,38.43
2017-10-26T09:26:48.601Z,39.00
2017-10-26T09:29:16.417Z,39.07
2017-10-26T09:31:44.228Z,39.13
2017-10-26T09:34:12.062Z,41.27
2017-10-26T09:36:39.878Z,31.37
2017-10-26T09:39:07.717Z,38.47
2017-10-26T09:41:35.537Z,39.40
2017-10-26T09:44:03.358Z,32.20
2017-10-26T09:46:31.169Z,31.10
2017-10-26T09:48:58.992Z,38.97
2017-10-26T09:51:26.802Z,37.80
2017-10-26T09:53:54.633Z,37.40
2017-10-26T09:56:22.452Z,37.40
2017-10-26T09:58:50.282Z,39.63
2017-10-26T10:01:18.117Z,36.57
2017-10-26T10:03:45.953Z,39.57
2017-10-26T10:06:13.769Z,35.57
2017-10-26T10:08:41.593Z,32.70
2017-10-26T10:11:09.411Z,35.37
2017-10-26T10:13:37.234Z,36.80
2017-10-26T10:16:05.049Z,35.13
2017-10-26T10:18:32.916Z,34.43
2017-10-26T10:21:00.736Z,37.50
2017-10-26T10:23:28.572Z,33.13
2017-10-26T10:25:56.386Z,33.90
2017-10-26T10:28:24.205Z,34.67
2017-10-26T10:30:52.022Z,32.50
2017-10-26T10:33:19.827Z,34.30
2017-10-26T10:35:47.632Z,31.57
2017-10-26T10:38:15.445Z,32.83
2017-10-26T10:40:43.253Z,33.20
2017-10-26T10:43:11.049Z,28.20
2017-10-26T10:45:38.867Z,31.17
2017-10-26T10:48:06.710Z,30.40
2017-10-26T10:50:34.543Z,31.57
2017-10-26T10:53:02.357Z,33.03
2017-10-26T10:55:30.181Z,31.43
2017-10-26T10:57:57.977Z,28.40
2017-10-26T11:00:31.872Z,31.77
2017-10-26T11:02:59.692Z,24.50
2017-10-26T11:05:27.513Z,29.90
2017-10-26T11:07:55.349Z,30.30
2017-10-26T11:10:23.169Z,29.37
2017-10-26T11:12:50.985Z,28.27
2017-10-26T11:15:18.791Z,26.13
2017-10-26T11:17:46.620Z,30.47
2017-10-26T11:20:14.461Z,26.60
2017-10-26T11:22:42.311Z,23.33
2017-10-26T11:25:10.117Z,28.20
2017-10-26T11:27:37.937Z,25.47
2017-10-26T11:30:05.752Z,24.77
2017-10-26T11:32:33.575Z,23.50
2017-10-26T11:35:01.393Z,24.53
2017-10-26T11:37:29.209Z,21.40
2017-10-26T11:39:57.028Z,19.63
2017-10-26T11:42:24.828Z,21.97
2017-10-26T11:44:52.620Z,23.87
2017-10-26T11:47:20.429Z,21.60
2017-10-26T11:49:48.233Z,20.63
2017-10-26T11:52:16.046Z,18.30
2017-10-26T11:54:43.833Z,24.33
2017-10-26T11:57:11.658Z,16.13
2017-10-26T11:59:39.461Z,19.20
2017-10-26T12:02:07.281Z,17.90
2017-10-26T12:04:35.080Z,18.20
2017-10-26T12:07:02.890Z,17.20
2017-10-26T12:09:30.725Z,15.63
2017-10-26T12:11:58.540Z,13.30
2017-10-26T12:14:26.349Z,12.63
2017-10-26T12:16:54.166Z,11.30
2017-10-26T12:19:21.968Z,14.23
2017-10-26T12:21:49.779Z,14.23
2017-10-26T12:24:17.596Z,14.70
2017-10-26T12:26:45.420Z,12.90
2017-10-26T12:29:13.233Z,11.90
2017-10-26T12:31:41.037Z,11.63
2017-10-26T12:34:08.886Z,12.10
2017-10-26T12:36:36.701Z,12.40
2017-10-26T12:39:04.549Z,12.03
2017-10-26T12:41:32.426Z,10.47
2017-10-26T12:44:00.247Z,10.47
2017-10-26T12:46:28.056Z,11.43
2017-10-26T12:48:55.877Z,10.17
2017-10-26T12:51:23.684Z,11.27
2017-10-26T12:53:51.509Z,12.63
2017-10-26T12:56:19.328Z,9.93
2017-10-26T12:58:47.177Z,10.03
2017-10-26T13:01:15.015Z,9.63
2017-10-26T13:03:42.844Z,10.53
2017-10-26T13:06:10.653Z,8.87
2017-10-26T13:08:38.464Z,10.67
2017-10-26T13:11:06.285Z,11.53
2017-10-26T13:13:34.100Z,11.17
2017-10-26T13:16:01.916Z,12.70
2017-10-26T13:18:29.746Z,14.40
2017-10-26T13:20:57.574Z,13.00
2017-10-26T13:23:25.394Z,17.07
2017-10-26T13:25:53.229Z,17.50
2017-10-26T13:28:21.057Z,15.43
2017-10-26T13:30:48.904Z,15.93
2017-10-26T13:33:16.724Z,15.17
2017-10-26T13:35:44.532Z,15.30
2017-10-26T13:38:12.343Z,13.73
2017-10-26T13:40:40.184Z,13.63
2017-10-26T13:43:08.004Z,13.30
2017-10-26T13:45:35.824Z,15.33
2017-10-26T13:48:03.644Z,14.47
2017-10-26T13:50:31.465Z,14.17
2017-10-26T13:52:59.303Z,13.37
2017-10-26T13:55:27.133Z,15.77
2017-10-26T13:57:54.983Z,14.20
2017-10-26T14:00:22.876Z,14.73
2017-10-26T14:02:50.810Z,13.67
2017-10-26T14:05:18.705Z,14.33
2017-10-26T14:07:46.550Z,11.10
2017-10-26T14:10:14.369Z,14.17
2017-10-26T14:12:42.257Z,14.20
2017-10-26T14:15:10.103Z,14.00
2017-10-26T14:17:37.949Z,12.70
2017-10-26T14:20:05.753Z,12.80
2017-10-26T14:22:33.569Z,12.60
2017-10-26T14:25:01.399Z,13.27
2017-10-26T14:27:29.234Z,13.30
2017-10-26T14:29:57.057Z,11.80
2017-10-26T14:32:24.954Z,11.43
2017-10-26T14:34:52.782Z,11.70
2017-10-26T14:37:20.622Z,12.77
2017-10-26T14:39:48.500Z,12.00
2017-10-26T14:42:16.322Z,12.60
2017-10-26T14:44:44.128Z,11.47
2017-10-26T14:47:11.963Z,11.30
2017-10-26T14:49:39.769Z,10.77
2017-10-26T14:52:07.576Z,11.03
2017-10-26T14:54:35.372Z,11.87
2017-10-26T14:57:03.162Z,10.93
2017-10-26T14:59:30.960Z,10.63
2017-10-26T15:01:58.777Z,86.33
2017-10-26T15:04:26.603Z,22.83
2017-10-26T15:06:54.388Z,8.70
2017-10-26T15:09:22.194Z,13.80
2017-10-26T15:11:49.981Z,7.20
2017-10-26T15:14:17.781Z,8.90
2017-10-26T15:16:45.573Z,12.10
2017-10-26T15:19:13.377Z,8.77
2017-10-26T15:21:41.174Z,5.97
2017-10-26T15:24:08.993Z,7.70
2017-10-26T15:26:36.781Z,6.50
2017-10-26T15:29:04.582Z,6.93
2017-10-26T15:31:32.390Z,6.33
2017-10-26T15:34:00.230Z,6.83
2017-10-26T15:36:28.066Z,5.90
2017-10-26T15:38:56.180Z,6.33
2017-10-26T15:41:24.021Z,6.03
2017-10-26T15:43:51.848Z,7.57
2017-10-26T15:46:19.685Z,5.80
2017-10-26T15:48:47.512Z,6.13
2017-10-26T15:51:15.353Z,5.97
2017-10-26T15:53:43.165Z,6.93
2017-10-26T15:56:10.994Z,5.80
2017-10-26T15:58:38.797Z,5.57
2017-10-26T16:01:06.637Z,6.20
2017-10-26T16:03:40.923Z,6.10
2017-10-26T16:06:08.761Z,6.10
2017-10-26T16:08:37.378Z,18.70
2017-10-26T16:11:05.349Z,6.93
2017-10-26T16:13:33.781Z,6.53
2017-10-26T16:16:05.494Z,8.43
2017-10-26T16:18:33.434Z,7.20
2017-10-26T16:21:01.570Z,7.83
2017-10-26T16:23:29.728Z,6.80
2017-10-26T16:25:57.598Z,6.00
2017-10-26T16:28:25.432Z,5.57
2017-10-26T16:30:53.292Z,6.67
2017-10-26T16:33:22.197Z,8.37
2017-10-26T16:35:50.053Z,7.20
2017-10-26T16:38:17.901Z,5.47
2017-10-26T16:40:45.825Z,6.33
2017-10-26T16:43:13.718Z,7.70
2017-10-26T16:45:41.535Z,9.70
2017-10-26T16:48:09.958Z,7.43
2017-10-26T16:50:37.911Z,6.40
2017-10-26T16:53:05.779Z,7.20
2017-10-26T16:55:51.138Z,7.50
2017-10-26T16:58:18.993Z,6.10
2017-10-26T17:01:04.153Z,8.00
2017-10-26T17:03:40.496Z,6.10
2017-10-26T17:06:08.413Z,7.63
2017-10-26T17:08:36.230Z,7.37
2017-10-26T17:11:04.067Z,6.43
2017-10-26T17:13:42.648Z,6.20
2017-10-26T17:16:10.644Z,5.40
2017-10-26T17:18:38.482Z,7.20
2017-10-26T17:21:06.343Z,6.50
2017-10-26T17:23:34.205Z,5.93
2017-10-26T17:26:02.050Z,5.80
2017-10-26T17:28:31.635Z,7.10
2017-10-26T17:31:00.176Z,7.37
2017-10-26T17:33:28.187Z,7.80
2017-10-26T17:35:56.205Z,6.10
2017-10-26T17:38:29.997Z,8.10
2017-10-26T17:40:57.813Z,6.83
2017-10-26T17:43:25.683Z,7.20
2017-10-26T17:45:57.536Z,6.57
2017-10-26T17:48:26.405Z,7.67
2017-10-26T17:50:54.217Z,7.40
2017-10-26T17:53:22.079Z,6.60
2017-10-26T17:55:49.980Z,7.83
2017-10-26T17:58:17.805Z,8.30
2017-10-26T18:00:45.613Z,8.20
2017-10-26T18:03:13.433Z,7.20
2017-10-26T18:05:51.841Z,8.63
2017-10-26T18:08:20.001Z,7.30
2017-10-26T18:10:47.887Z,8.30
2017-10-26T18:13:17.575Z,8.00
2017-10-26T18:15:52.842Z,9.23
2017-10-26T18:18:21.497Z,8.80
2017-10-26T18:20:59.454Z,8.33
2017-10-26T18:23:27.287Z,8.20
2017-10-26T18:25:55.096Z,8.10
2017-10-26T18:28:22.902Z,9.23
2017-10-26T18:30:50.704Z,8.30
2017-10-26T18:33:18.493Z,8.60
2017-10-26T18:35:46.365Z,8.67
2017-10-26T18:38:14.201Z,6.87
2017-10-26T18:40:42.021Z,7.87
2017-10-26T18:43:09.826Z,9.23
2017-10-26T18:45:37.648Z,9.20
2017-10-26T18:48:05.446Z,10.17
2017-10-26T18:50:33.280Z,8.60
2017-10-26T18:53:01.101Z,8.53
2017-10-26T18:55:28.953Z,9.50
2017-10-26T18:57:56.784Z,9.83
2017-10-26T19:00:24.602Z,8.87
2017-10-26T19:02:52.409Z,9.00
2017-10-26T19:05:20.213Z,9.20
2017-10-26T19:07:48.000Z,7.50
2017-10-26T19:10:15.811Z,9.20
2017-10-26T19:12:43.621Z,8.10
2017-10-26T19:15:11.427Z,8.30
2017-10-26T19:17:39.225Z,7.93
2017-10-26T19:20:07.011Z,8.07
2017-10-26T19:22:34.812Z,9.17
2017-10-26T19:25:02.613Z,8.77
2017-10-26T19:27:30.430Z,8.07
2017-10-26T19:29:58.291Z,6.50
2017-10-26T19:32:26.096Z,10.40
2017-10-26T19:34:53.892Z,7.50
2017-10-26T19:37:21.688Z,7.20
2017-10-26T19:39:49.497Z,8.57
2017-10-26T19:42:17.305Z,7.03
2017-10-26T19:44:46.064Z,7.80
2017-10-26T19:47:13.869Z,7.90
2017-10-26T19:49:41.705Z,9.20
2017-10-26T19:52:09.524Z,6.57
2017-10-26T19:54:37.317Z,6.40
2017-10-26T19:57:05.134Z,8.60
2017-10-26T19:59:32.949Z,6.40
2017-10-26T20:02:00.782Z,7.00
2017-10-26T20:04:28.604Z,7.87
2017-10-26T20:06:56.443Z,7.03
2017-10-26T20:09:24.264Z,8.40
2017-10-26T20:11:52.313Z,7.90
2017-10-26T20:14:20.112Z,8.20
2017-10-26T20:16:47.929Z,6.90
2017-10-26T20:19:15.729Z,6.70
2017-10-26T20:21:43.553Z,7.83
2017-10-26T20:24:11.345Z,5.93
2017-10-26T20:26:39.149Z,6.47
2017-10-26T20:29:06.965Z,5.43
2017-10-26T20:31:34.827Z,7.10
2017-10-26T20:34:02.668Z,7.47
2017-10-26T20:36:30.484Z,6.53
2017-10-26T20:38:58.317Z,7.30
2017-10-26T20:41:26.197Z,7.23
2017-10-26T20:43:54.023Z,7.70
2017-10-26T20:46:21.837Z,4.20
2017-10-26T20:48:49.673Z,6.50
2017-10-26T20:51:23.497Z,6.67
2017-10-26T20:53:57.420Z,6.07
2017-10-26T20:56:42.097Z,6.60
2017-10-26T20:59:16.129Z,6.43
2017-10-26T21:01:58.905Z,4.97
2017-10-26T21:04:32.745Z,6.20
2017-10-26T21:07:00.597Z,5.17
2017-10-26T21:09:28.417Z,5.63
2017-10-26T21:12:02.393Z,4.73
2017-10-26T21:14:30.213Z,5.37
2017-10-26T21:16:58.022Z,6.83
2017-10-26T21:19:25.845Z,7.40
2017-10-26T21:21:53.667Z,7.07
2017-10-26T21:24:21.490Z,8.30
2017-10-26T21:26:49.301Z,8.00
2017-10-26T21:29:17.130Z,7.67
2017-10-26T21:31:44.982Z,7.90
2017-10-26T21:34:12.802Z,5.67
2017-10-26T21:36:40.626Z,6.77
2017-10-26T21:39:08.481Z,6.97
2017-10-26T21:41:36.320Z,6.40
2017-10-26T21:44:04.154Z,7.33
2017-10-26T21:46:32.017Z,6.60
2017-10-26T21:48:59.820Z,6.20
2017-10-26T21:51:27.664Z,5.20
2017-10-26T21:53:55.541Z,6.33
2017-10-26T21:56:23.386Z,6.10
2017-10-26T21:58:51.259Z,6.63
2017-10-26T22:01:19.138Z,9.10
2017-10-26T22:03:46.967Z,6.83
2017-10-26T22:06:14.785Z,6.40
2017-10-26T22:08:42.613Z,6.17
2017-10-26T22:11:10.425Z,8.27
2017-10-26T22:13:38.236Z,6.43
2017-10-26T22:16:06.076Z,6.93
2017-10-26T22:18:33.887Z,7.30
2017-10-26T22:21:01.697Z,5.93
2017-10-26T22:23:29.598Z,7.50
2017-10-26T22:25:57.432Z,7.70
2017-10-26T22:28:25.245Z,5.97
2017-10-26T22:30:53.054Z,7.13
2017-10-26T22:33:20.888Z,7.03
2017-10-26T22:35:48.692Z,8.00
2017-10-26T22:38:16.520Z,8.30
2017-10-26T22:40:44.354Z,8.10
2017-10-26T22:43:12.292Z,8.60
2017-10-26T22:45:40.135Z,8.07
2017-10-26T22:48:07.968Z,9.80
2017-10-26T22:50:35.765Z,7.50
2017-10-26T22:53:03.585Z,8.90
2017-10-26T22:55:31.378Z,8.00
2017-10-26T22:57:59.205Z,7.43
2017-10-26T23:00:27.045Z,7.53
2017-10-26T23:02:54.884Z,9.00
2017-10-26T23:05:22.729Z,8.00
2017-10-26T23:07:50.606Z,6.77
2017-10-26T23:10:18.418Z,7.70
2017-10-26T23:12:46.267Z,7.30
2017-10-26T23:15:14.076Z,7.97
2017-10-26T23:17:41.918Z,8.07
2017-10-26T23:20:09.768Z,7.50
2017-10-26T23:22:37.628Z,9.73
2017-10-26T23:25:05.452Z,10.23
2017-10-26T23:27:33.284Z,10.00
2017-10-26T23:30:01.131Z,12.20
2017-10-26T23:32:28.968Z,11.23
2017-10-26T23:34:56.813Z,10.03
2017-10-26T23:37:24.636Z,9.20
2017-10-26T23:39:52.461Z,10.27
2017-10-26T23:42:20.309Z,9.13
2017-10-26T23:44:48.138Z,8.60
2017-10-26T23:47:15.981Z,9.33
2017-10-26T23:49:43.837Z,6.00
2017-10-26T23:52:11.687Z,6.33
2017-10-26T23:54:39.498Z,5.70
2017-10-26T23:57:07.346Z,5.43
2017-10-26T23:59:35.201Z,4.00
